• Join FlightAware (Why Join?)
  • Login
  • US Flag 
11:55PM EDT


 

Airport Tracker/Info


-or-


 

Live Flight TrackerFlight Track Log ✈ QXE2483 ✈ 05-Jul-2013 ✈ KPDX - KMFR

Flight Track Log - Related Links

Times and Time Zones

All times are in EDT time to prevent confusion due to time zone crossing. See the QXE2483 flight status page for this flight to view local times or setup timezone preferences in your user account.

Time Position Orientation Groundspeed Altitude Reporting Facility
EDT Latitude Longitude Course Direction KTS MPH feet Rate Location/Type
11:08AM 45.0630 -122.8102 199° South  Level FlightAware Approximate
11:09AM 44.9888 -122.8445 196° South  Level FlightAware Approximate
11:10AM 44.9141 -122.8763 200° South  Level FlightAware Approximate
11:11AM 44.8401 -122.9107 196° South  Level FlightAware Approximate
11:12AM 44.7650 -122.9407 196° South  Level FlightAware Approximate
11:13AM 44.6899 -122.9705 195° South  Level FlightAware Approximate
11:14AM 44.6145 -122.9987 195° South  Level FlightAware Approximate
11:15AM 44.5395 -123.0288 198° South  Level FlightAware Approximate
11:16AM 44.4694 -123.0602 198° South  Level FlightAware Approximate
11:17AM 44.3993 -123.0914 198° South  Level FlightAware Approximate
11:18AM 44.3292 -123.1226 198° South  Level FlightAware Approximate
11:19AM 44.2591 -123.1537 198° South  Level FlightAware Approximate
11:20AM 44.1889 -123.1848 198° South  Level FlightAware Approximate
11:21AM 44.1188 -123.2157 198° South  Level FlightAware Approximate
11:22AM 44.0469 -123.1968 173° South  Level FlightAware Approximate
11:23AM 43.9738 -123.1851 173° South  Level FlightAware Approximate
11:24AM 43.9007 -123.1733 173° South  Level FlightAware Approximate
11:25AM 43.8276 -123.1616 173° South  Level FlightAware Approximate
11:26AM 43.7545 -123.1500 173° South  Level FlightAware Approximate
11:27AM 43.6814 -123.1383 173° South  Level FlightAware Approximate
11:28AM 43.6089 -123.1216 168° South  Level FlightAware Approximate
11:29AM 43.5339 -123.1167 177° South  Level FlightAware Approximate
11:30AM 43.4586 -123.1069 175° South  Level FlightAware Approximate
11:31AM 43.3834 -123.0970 175° South  Level FlightAware Approximate
11:32AM 43.3081 -123.0872 175° South  Level FlightAware Approximate
11:33AM 43.2329 -123.0774 175° South  Level FlightAware Approximate
11:34AM 43.1576 -123.0677 175° South  Level FlightAware Approximate
11:35AM 43.0821 -123.0665 176° South  Level FlightAware Approximate
11:36AM 43.0067 -123.0590 176° South  Level FlightAware Approximate
11:37AM 42.9313 -123.0515 176° South  Level FlightAware Approximate
11:38AM 42.8562 -123.0399 173° South  Level FlightAware Approximate
11:39AM 42.7812 -123.0274 173° South  Level FlightAware Approximate
11:40AM 42.7062 -123.0146 172° South  Level FlightAware Approximate
11:41AM 42.6314 -122.9994 166° South  Level FlightAware Approximate
11:42AM 42.5589 -122.9711 160° South  Level FlightAware Approximate
11:43AM 42.4895 -122.9304 156° South  Level FlightAware Approximate
11:44AM 42.4192 -122.8929 160° South  Level FlightAware Approximate
11:45AM 42.3742 -122.8735 160° South  Level Estimated
11:46AM 42.3742 -122.8735 160° South  Level Estimated
11:47AM 42.3742 -122.8735 160° South  Level Estimated
11:48AM 42.3742 -122.8735 160° South  Level Estimated
11:49AM 42.3742 -122.8735 160° South  Level Estimated